Time;durP1;ratioP1;P1;durP2;ratioP2;P2;SDS_P1;SDS_P2;PMS_P1;PMS_P2;Temp;Humidity;BMP_temperature;BMP_pressure;BME280_temperature;BME280_humidity;BME280_pressure;Samples;Min_cycle;Max_cycle;Signal;HPM_P1;HPM_P2
2022/07/18 00:01:21;;;;;;;0.60;0.60;;;16.30;47.20;;;16.61;34.50;95888.03;5012904;28;20280;-77
2022/07/18 00:03:48;;;;;;;0.50;0.50;;;16.30;47.30;;;16.59;34.29;95876.03;4984565;28;20209;-78
2022/07/18 00:06:15;;;;;;;0.50;0.50;;;16.20;47.40;;;16.58;34.27;95891.06;4997390;28;20714;-77
2022/07/18 00:08:43;;;;;;;0.60;0.60;;;16.10;47.30;;;16.54;34.62;95881.94;5014856;28;20284;-77
2022/07/18 00:11:10;;;;;;;0.60;0.60;;;16.10;48.00;;;16.51;34.71;95884.97;5032064;28;20250;-77
2022/07/18 00:13:38;;;;;;;0.50;0.50;;;16.00;47.70;;;16.44;34.75;95884.16;5032406;28;20195;-77
2022/07/18 00:16:05;;;;;;;0.50;0.50;;;16.00;47.80;;;16.41;34.73;95889.88;5016671;28;20224;-77
2022/07/18 00:18:33;;;;;;;0.40;0.40;;;15.90;47.70;;;16.34;34.76;95876.63;5012419;28;20700;-77
2022/07/18 00:21:00;;;;;;;0.50;0.50;;;15.90;47.70;;;16.32;34.70;95886.63;5006516;28;20243;-77
2022/07/18 00:23:27;;;;;;;0.50;0.50;;;16.00;47.90;;;16.29;34.74;95890.47;5015341;28;20797;-77
2022/07/18 00:25:54;;;;;;;0.55;0.55;;;15.80;47.90;;;16.26;35.63;95895.34;5032926;28;20257;-77
2022/07/18 00:28:21;;;;;;;0.50;0.50;;;15.90;48.50;;;16.20;36.13;95889.06;5010727;28;20296;-78
2022/07/18 00:30:48;;;;;;;0.52;0.52;;;15.80;48.80;;;16.16;36.02;95887.81;4996642;28;20219;-77
2022/07/18 00:33:16;;;;;;;0.50;0.50;;;15.80;49.10;;;16.16;35.90;95888.66;5012774;28;20717;-77
2022/07/18 00:35:43;;;;;;;0.50;0.50;;;15.70;49.00;;;16.12;35.80;95898.00;5011904;28;20233;-77
2022/07/18 00:38:10;;;;;;;0.70;0.70;;;15.70;49.10;;;16.08;36.92;95894.13;5016496;28;20196;-77
2022/07/18 00:40:37;;;;;;;0.60;0.60;;;15.70;49.60;;;16.05;37.92;95889.25;5013783;28;20237;-77
2022/07/18 00:43:04;;;;;;;0.60;0.60;;;15.70;50.30;;;15.99;38.34;95895.31;4996266;28;20207;-78
2022/07/18 00:45:37;;;;;;;0.50;0.50;;;15.70;50.60;;;15.94;38.62;95889.84;4984549;28;20224;-77
2022/07/18 00:48:09;;;;;;;0.40;0.40;;;15.70;50.90;;;15.91;37.81;95887.59;5016021;28;20211;-77
2022/07/18 00:50:37;;;;;;;0.60;0.60;;;15.70;50.60;;;15.88;37.17;95896.75;5016017;28;20665;-77
2022/07/18 00:53:05;;;;;;;0.55;0.55;;;15.60;50.00;;;15.87;37.35;95892.47;5031454;28;20199;-76
2022/07/18 00:55:32;;;;;;;0.50;0.50;;;15.50;50.10;;;15.82;37.70;95894.88;5008471;28;20228;-77
2022/07/18 00:58:00;;;;;;;0.70;0.70;;;15.50;50.30;;;15.76;38.26;95888.56;5015871;28;20199;-77
2022/07/18 01:03:13;;;;;;;0.50;0.50;;;15.50;51.20;;;15.67;38.71;95879.16;5031098;28;20196;-77
2022/07/18 01:05:40;;;;;;;0.60;0.60;;;15.50;51.30;;;15.63;39.10;95886.69;5000494;28;20686;-77
2022/07/18 01:08:07;;;;;;;0.50;0.50;;;15.40;51.40;;;15.58;39.24;95878.53;5011748;28;20204;-78
2022/07/18 01:10:34;;;;;;;0.50;0.50;;;15.40;51.70;;;15.57;38.91;95882.19;4995449;28;20220;-77
2022/07/18 01:13:02;;;;;;;0.60;0.60;;;15.40;51.50;;;15.57;38.79;95882.19;4996916;28;20202;-76
2022/07/18 01:15:29;;;;;;;0.60;0.60;;;15.40;51.20;;;15.58;38.03;95878.53;5015322;28;20326;-77
2022/07/18 01:17:56;;;;;;;0.63;0.63;;;15.40;51.00;;;15.59;37.75;95879.38;5015410;28;20202;-77
2022/07/18 01:20:29;;;;;;;0.60;0.60;;;15.30;50.80;;;15.59;38.03;95882.81;5030608;28;20236;-77
2022/07/18 01:22:57;;;;;;;0.57;0.57;;;15.30;51.40;;;15.59;37.85;95877.53;5013101;28;20187;-77
2022/07/18 01:25:24;;;;;;;0.80;0.80;;;15.30;50.90;;;15.62;37.87;95873.66;4997900;28;20239;-77
2022/07/18 01:27:51;;;;;;;0.70;0.70;;;15.30;50.90;;;15.61;37.63;95875.50;5012725;28;20220;-78
2022/07/18 01:30:19;;;;;;;0.50;0.50;;;15.30;50.90;;;15.60;38.13;95878.34;4997608;28;20224;-77
2022/07/18 01:32:46;;;;;;;0.50;0.50;;;15.20;51.10;;;15.60;38.70;95884.44;5019320;28;20216;-77
2022/07/18 01:35:14;;;;;;;0.60;0.60;;;15.20;51.70;;;15.55;38.56;95875.47;4995377;28;20217;-77
2022/07/18 01:37:41;;;;;;;0.80;0.80;;;15.20;51.80;;;15.56;38.91;95885.03;5002636;28;20208;-77
2022/07/18 01:40:11;;;;;;;0.50;0.50;;;15.30;52.00;;;15.54;39.18;95882.59;4994743;28;20200;-77
2022/07/18 01:42:38;;;;;;;0.50;0.50;;;15.20;52.10;;;15.51;38.98;95873.25;5015447;28;20254;-77
2022/07/18 01:45:06;;;;;;;0.60;0.60;;;15.30;52.20;;;15.51;38.48;95878.53;5013569;28;20627;-77
2022/07/18 01:47:33;;;;;;;0.57;0.57;;;15.20;51.60;;;15.49;38.45;95877.06;5024551;28;20224;-77
2022/07/18 01:50:00;;;;;;;0.60;0.60;;;15.20;51.80;;;15.45;38.15;95873.22;4995256;28;20224;-77
2022/07/18 01:52:27;;;;;;;0.60;0.60;;;15.20;51.50;;;15.43;38.30;95885.81;5002096;28;20621;-77
2022/07/18 01:54:54;;;;;;;0.60;0.60;;;15.10;51.40;;;15.39;38.19;95874.00;5015781;28;20196;-77
2022/07/18 01:57:22;;;;;;;0.70;0.70;;;15.10;52.60;;;15.35;37.92;95879.66;5030997;28;20728;-77
2022/07/18 01:59:49;;;;;;;0.70;0.70;;;15.00;51.70;;;15.31;38.15;95859.16;5013121;28;20208;-77
2022/07/18 02:02:17;;;;;;;0.60;0.60;;;15.00;51.60;;;15.29;38.12;95877.03;5007726;28;20319;-77
2022/07/18 02:04:59;;;;;;;0.60;0.60;;;15.00;52.00;;;15.25;38.19;95878.44;5030987;28;20640;-77
2022/07/18 02:07:38;;;;;;;0.80;0.80;;;14.90;51.80;;;15.19;38.35;95874.75;5030745;28;20234;-77
2022/07/18 02:10:13;;;;;;;0.40;0.40;;;14.80;53.40;;;15.11;38.51;95869.63;5028769;28;20629;-77
2022/07/18 02:12:41;;;;;;;0.60;0.60;;;14.80;52.30;;;15.09;38.34;95876.91;5031143;28;20200;-77
2022/07/18 02:15:11;;;;;;;0.60;0.60;;;14.80;52.00;;;15.06;38.58;95875.50;5030821;28;20212;-77
2022/07/18 02:17:39;;;;;;;0.60;0.60;;;14.70;52.50;;;15.01;38.61;95885.84;5031302;28;20199;-77
2022/07/18 02:20:10;;;;;;;0.50;0.50;;;14.70;52.50;;;14.95;38.68;95882.16;4994796;28;20215;-77
2022/07/18 02:22:38;;;;;;;0.55;0.55;;;14.60;52.90;;;14.89;39.02;95883.75;5014299;28;20315;-77
2022/07/18 02:25:06;;;;;;;0.52;0.52;;;14.60;52.60;;;14.83;39.12;95888.97;4998342;28;20207;-77
2022/07/18 02:27:33;;;;;;;0.60;0.60;;;14.50;52.60;;;14.77;38.70;95877.38;4998425;28;20575;-77
2022/07/18 02:30:00;;;;;;;0.50;0.50;;;14.50;52.70;;;14.70;39.22;95881.81;4996757;28;20291;-77
2022/07/18 02:32:28;;;;;;;0.63;0.63;;;14.40;52.50;;;14.64;39.41;95883.34;5030956;28;20368;-77
2022/07/18 02:34:55;;;;;;;0.75;0.75;;;14.40;52.50;;;14.61;39.29;95881.13;5030939;28;20188;-77
2022/07/18 02:37:22;;;;;;;0.50;0.50;;;14.30;52.60;;;14.61;39.14;95880.28;5034144;28;20598;-77
2022/07/18 02:39:49;;;;;;;0.70;0.70;;;14.30;52.80;;;14.61;39.44;95883.75;5015177;28;20749;-77
2022/07/18 02:42:17;;;;;;;0.77;0.77;;;14.30;52.90;;;14.64;39.42;95879.91;5001589;28;20228;-77
2022/07/18 02:44:45;;;;;;;0.50;0.50;;;14.20;52.80;;;14.64;39.32;95883.34;5034127;28;20200;-77
2022/07/18 02:47:13;;;;;;;0.57;0.57;;;14.30;53.00;;;14.62;39.53;95871.34;5028969;28;20239;-77
2022/07/18 02:49:40;;;;;;;0.70;0.70;;;14.20;52.90;;;14.63;39.33;95875.63;5032865;28;20200;-77
2022/07/18 02:52:09;;;;;;;0.60;0.60;;;14.30;53.30;;;14.63;39.69;95876.44;5034377;28;20216;-77
2022/07/18 02:54:38;;;;;;;0.60;0.60;;;14.30;53.50;;;14.62;39.71;95874.00;5034310;28;20188;-78
2022/07/18 02:57:06;;;;;;;0.60;0.60;;;14.30;53.40;;;14.58;39.53;95863.81;5014825;28;20319;-77
2022/07/18 02:59:34;;;;;;;0.50;0.50;;;14.20;53.40;;;14.58;39.54;95866.44;5034454;28;20184;-77
2022/07/18 03:02:02;;;;;;;0.60;0.60;;;14.20;53.30;;;14.58;39.59;95863.81;5033354;28;20589;-77
2022/07/18 03:04:30;;;;;;;0.60;0.60;;;14.20;53.40;;;14.56;39.78;95865.84;5028002;28;20196;-77
2022/07/18 03:06:58;;;;;;;0.50;0.50;;;14.20;53.40;;;14.55;40.26;95858.94;5009970;28;20622;-77
2022/07/18 03:09:27;;;;;;;0.60;0.60;;;14.20;53.80;;;14.57;40.71;95864.84;5024067;28;20199;-77
2022/07/18 03:11:57;;;;;;;0.60;0.60;;;14.20;54.20;;;14.58;40.27;95860.38;5027299;28;20708;-77
2022/07/18 03:14:25;;;;;;;0.75;0.75;;;14.30;54.50;;;14.58;40.18;95861.16;5000120;28;20568;-77
2022/07/18 03:16:52;;;;;;;0.50;0.50;;;14.20;53.90;;;14.55;40.48;95848.38;5006312;28;20223;-77
2022/07/18 03:19:20;;;;;;;0.57;0.57;;;14.20;53.80;;;14.56;40.10;95849.19;5015459;28;20208;-77
2022/07/18 03:21:47;;;;;;;0.55;0.55;;;14.20;53.80;;;14.56;40.09;95854.47;5024253;28;20216;-77
2022/07/18 03:24:15;;;;;;;0.60;0.60;;;14.30;54.20;;;14.55;40.44;95858.13;5014123;28;20202;-77
2022/07/18 03:26:43;;;;;;;0.60;0.60;;;14.20;54.00;;;14.54;40.90;95852.03;5022106;28;20220;-77
2022/07/18 03:29:12;;;;;;;0.50;0.50;;;14.20;54.40;;;14.52;40.88;95864.59;4993973;28;20203;-77
2022/07/18 03:31:39;;;;;;;0.60;0.60;;;14.20;54.50;;;14.49;40.91;95854.44;5006272;28;20235;-77
2022/07/18 03:34:06;;;;;;;0.60;0.60;;;14.20;54.50;;;14.52;40.69;95850.59;5014619;28;20204;-77
2022/07/18 03:36:36;;;;;;;0.60;0.60;;;14.20;54.50;;;14.50;40.69;95858.69;5011736;28;20224;-77
2022/07/18 03:39:05;;;;;;;0.70;0.70;;;14.20;54.60;;;14.50;40.46;95852.59;5006401;28;20208;-77
2022/07/18 03:41:32;;;;;;;0.60;0.60;;;14.30;54.60;;;14.49;40.88;95865.00;5023520;28;20690;-77
2022/07/18 03:44:00;;;;;;;0.68;0.68;;;14.20;54.80;;;14.44;41.67;95859.47;4992343;28;20246;-78
2022/07/18 03:46:28;;;;;;;0.70;0.70;;;14.20;55.30;;;14.45;41.95;95862.91;5022217;28;20247;-77
2022/07/18 03:48:55;;;;;;;0.50;0.50;;;14.20;55.30;;;14.47;41.40;95858.28;5009694;28;20196;-77
2022/07/18 03:51:23;;;;;;;0.50;0.50;;;14.20;55.10;;;14.46;41.27;95852.16;4995310;28;20221;-77
2022/07/18 03:53:51;;;;;;;0.65;0.65;;;14.20;55.00;;;14.53;40.99;95863.59;4997704;28;20196;-77
2022/07/18 03:56:18;;;;;;;0.60;0.60;;;14.20;55.00;;;14.55;41.22;95863.41;5014323;28;20733;-78
2022/07/18 03:58:46;;;;;;;0.60;0.60;;;14.20;54.90;;;14.57;41.19;95867.47;5014715;28;20215;-78
2022/07/18 04:01:14;;;;;;;0.50;0.50;;;14.20;55.00;;;14.58;41.12;95863.81;5020599;28;20275;-78
2022/07/18 04:03:41;;;;;;;0.50;0.50;;;14.20;55.10;;;14.64;41.04;95864.88;5029633;28;20279;-78
2022/07/18 04:06:08;;;;;;;0.50;0.50;;;14.30;55.20;;;14.66;41.18;95862.91;5000333;28;20227;-79
2022/07/18 04:08:35;;;;;;;0.40;0.40;;;14.30;55.20;;;14.69;41.09;95862.50;5015940;28;20200;-78
2022/07/18 04:11:03;;;;;;;0.60;0.60;;;14.50;55.40;;;14.72;41.26;95862.13;5010023;28;20315;-76
2022/07/18 04:13:30;;;;;;;0.57;0.57;;;14.40;55.30;;;14.78;41.16;95857.91;4996145;28;20673;-78
2022/07/18 04:15:57;;;;;;;0.50;0.50;;;14.40;55.20;;;14.80;41.17;95860.34;4997665;28;20644;-77
2022/07/18 04:18:24;;;;;;;0.50;0.50;;;14.50;55.40;;;14.88;40.99;95870.75;5014295;28;20255;-78
2022/07/18 04:20:51;;;;;;;0.50;0.50;;;14.50;55.20;;;14.92;41.05;95860.59;5009299;28;20351;-78
2022/07/18 04:23:19;;;;;;;0.70;0.70;;;14.60;55.40;;;14.96;41.03;95861.84;4995280;28;20201;-78
2022/07/18 04:25:46;;;;;;;0.40;0.40;;;14.60;56.50;;;15.01;41.12;95856.78;5014536;28;20215;-78
2022/07/18 04:28:14;;;;;;;0.47;0.47;;;14.60;55.30;;;15.05;41.06;95856.19;5014177;28;20550;-77
2022/07/18 04:30:43;;;;;;;0.60;0.60;;;14.70;55.30;;;15.09;41.15;95855.78;5016216;28;20319;-77
2022/07/18 04:33:12;;;;;;;0.40;0.40;;;14.80;55.70;;;15.14;41.20;95861.31;5015541;28;20204;-78
2022/07/18 04:35:39;;;;;;;0.60;0.60;;;14.80;55.70;;;15.19;41.43;95857.06;5016114;28;20232;-78
2022/07/18 04:38:09;;;;;;;0.50;0.50;;;14.80;56.10;;;15.25;41.47;95866.03;5031852;28;20208;-78
2022/07/18 04:40:37;;;;;;;0.50;0.50;;;14.90;56.20;;;15.30;41.57;95860.16;5027276;28;20303;-78
2022/07/18 04:43:05;;;;;;;0.40;0.40;;;15.00;56.20;;;15.37;41.53;95872.38;4995431;28;20197;-77
2022/07/18 04:45:34;;;;;;;0.50;0.50;;;15.00;56.50;;;15.44;42.14;95864.47;5027064;28;20274;-77
2022/07/18 04:48:04;;;;;;;0.50;0.50;;;15.10;57.10;;;15.50;41.99;95857.56;5031627;28;20211;-77
2022/07/18 04:50:32;;;;;;;0.50;0.50;;;15.20;56.90;;;15.56;42.21;95856.75;5031672;28;20227;-77
2022/07/18 04:52:59;;;;;;;0.50;0.50;;;15.30;56.90;;;15.64;42.15;95855.78;5013032;28;20583;-77
2022/07/18 04:55:28;;;;;;;0.40;0.40;;;15.30;57.20;;;15.72;42.26;95860.88;5030869;28;20713;-78
2022/07/18 04:57:55;;;;;;;0.60;0.60;;;15.50;57.00;;;15.80;42.22;95862.53;5031970;28;20591;-78
2022/07/18 05:00:26;;;;;;;0.40;0.40;;;15.50;57.00;;;15.88;42.43;95862.38;5011952;28;20230;-78
2022/07/18 05:02:56;;;;;;;0.60;0.60;;;15.60;57.30;;;15.96;42.39;95859.50;5012061;28;20322;-78
2022/07/18 05:05:26;;;;;;;0.50;0.50;;;15.70;57.10;;;16.05;42.21;95867.25;5013949;28;20213;-78
2022/07/18 05:08:02;;;;;;;0.50;0.50;;;15.80;56.70;;;16.14;42.04;95858.13;4981597;28;20246;-78
2022/07/18 05:10:30;;;;;;;0.50;0.50;;;15.80;56.70;;;16.22;42.16;95847.31;5012722;28;20227;-78
2022/07/18 05:12:57;;;;;;;0.50;0.50;;;15.90;57.10;;;16.32;41.88;95854.84;5024878;28;20211;-78
2022/07/18 05:15:26;;;;;;;0.50;0.50;;;16.00;56.70;;;16.42;42.22;95851.78;4993133;28;20224;-77
2022/07/18 05:17:53;;;;;;;0.60;0.60;;;16.10;56.80;;;16.52;42.26;95852.19;5019877;28;20250;-78
2022/07/18 05:20:24;;;;;;;0.40;0.40;;;16.20;57.00;;;16.62;42.18;95852.59;5013196;28;20219;-77
2022/07/18 05:22:52;;;;;;;0.30;0.30;;;16.30;57.00;;;16.72;41.93;95852.16;5020828;28;20525;-77
2022/07/18 05:25:22;;;;;;;0.50;0.50;;;16.40;56.90;;;16.83;42.37;95850.69;5019455;28;20208;-78
2022/07/18 05:27:51;;;;;;;0.47;0.47;;;16.50;56.90;;;16.93;41.97;95847.63;5004567;28;20200;-77
2022/07/18 05:30:19;;;;;;;0.50;0.50;;;16.60;56.90;;;17.05;42.26;95848.63;5019820;28;20215;-80
2022/07/18 05:32:49;;;;;;;0.50;0.50;;;16.80;57.70;;;17.16;42.69;95849.00;4990084;28;20204;-77
2022/07/18 05:35:16;;;;;;;0.52;0.52;;;16.90;59.40;;;17.25;42.83;95848.53;4994819;28;20204;-77
2022/07/18 05:37:44;;;;;;;0.50;0.50;;;17.00;58.10;;;17.39;43.01;95848.47;5004443;28;20207;-78
2022/07/18 05:40:14;;;;;;;0.60;0.60;;;17.10;58.00;;;17.44;43.18;95841.53;4996320;28;20288;-78
2022/07/18 05:42:41;;;;;;;0.50;0.50;;;17.20;58.00;;;17.61;42.86;95838.34;5002870;28;20201;-77
2022/07/18 05:45:24;;;;;;;0.50;0.50;;;17.30;57.70;;;17.72;42.86;95842.19;5024311;28;20217;-77
2022/07/18 05:47:53;;;;;;;0.40;0.40;;;17.40;57.70;;;17.84;42.66;95844.97;5018456;28;20196;-78
2022/07/18 05:50:23;;;;;;;0.40;0.40;;;17.60;57.90;;;17.95;42.75;95848.81;5004880;28;20208;-78
2022/07/18 05:52:50;;;;;;;0.50;0.50;;;17.60;57.80;;;18.07;42.47;95847.88;5020579;28;20276;-78
2022/07/18 05:55:18;;;;;;;0.40;0.40;;;17.80;58.00;;;18.16;42.64;95845.78;5018819;28;20196;-78
2022/07/18 05:57:45;;;;;;;0.40;0.40;;;17.90;57.50;;;18.26;42.29;95842.66;4995053;28;20739;-78
2022/07/18 06:00:13;;;;;;;0.50;0.50;;;18.00;57.30;;;18.35;42.53;95830.69;5020346;28;20189;-78
2022/07/18 06:02:41;;;;;;;0.40;0.40;;;18.10;57.10;;;18.48;42.43;95836.91;5000862;28;20196;-78
2022/07/18 06:05:09;;;;;;;0.50;0.50;;;18.20;57.20;;;18.59;42.18;95840.69;5018078;28;20199;-78
2022/07/18 06:07:50;;;;;;;0.40;0.40;;;18.30;57.20;;;18.63;42.18;95829.41;5020094;28;20197;-78
2022/07/18 06:10:17;;;;;;;0.50;0.50;;;18.50;57.30;;;18.80;41.99;95839.50;5010827;28;20223;-77
2022/07/18 06:12:44;;;;;;;0.50;0.50;;;18.50;57.30;;;18.91;42.41;95840.56;5032374;28;20777;-78
2022/07/18 06:15:13;;;;;;;0.40;0.40;;;18.60;57.10;;;19.00;41.91;95837.44;5032399;28;20183;-77
2022/07/18 06:17:40;;;;;;;0.52;0.52;;;18.80;56.80;;;19.13;41.83;95841.00;4981449;28;20274;-78
2022/07/18 06:20:07;;;;;;;0.63;0.63;;;18.80;56.60;;;19.24;41.88;95842.06;5027997;28;20188;-78
2022/07/18 06:22:36;;;;;;;0.60;0.60;;;19.00;56.70;;;19.33;41.52;95844.22;5020996;28;20298;-78
2022/07/18 06:25:04;;;;;;;0.40;0.40;;;19.10;56.70;;;19.43;41.83;95841.03;5001422;28;20201;-78
2022/07/18 06:27:32;;;;;;;0.40;0.40;;;19.20;56.60;;;19.56;41.17;95849.88;5004944;28;20199;-78
2022/07/18 06:29:59;;;;;;;0.40;0.40;;;19.30;56.40;;;19.65;41.45;95845.84;5004097;28;20200;-77
2022/07/18 06:32:26;;;;;;;0.60;0.60;;;19.40;56.30;;;19.76;40.91;95845.09;5009392;28;20203;-78
2022/07/18 06:34:53;;;;;;;0.40;0.40;;;19.50;55.90;;;19.86;40.73;95841.91;5025981;28;20196;-78
2022/07/18 06:37:20;;;;;;;0.40;0.40;;;19.60;55.60;;;19.98;40.32;95839.25;5016709;28;20232;-78
2022/07/18 06:39:47;;;;;;;0.50;0.50;;;19.70;55.20;;;20.08;40.53;95838.69;5016454;28;20196;-78
2022/07/18 06:42:14;;;;;;;0.40;0.40;;;19.80;55.00;;;20.17;39.99;95836.53;5016451;28;20227;-78
2022/07/18 06:44:44;;;;;;;0.40;0.40;;;19.90;56.20;;;20.28;40.14;95827.72;4996559;28;20709;-78
2022/07/18 06:47:11;;;;;;;0.45;0.45;;;20.10;54.80;;;20.42;39.66;95837.13;4997881;28;20220;-78
2022/07/18 06:49:38;;;;;;;0.40;0.40;;;20.20;54.60;;;20.53;39.49;95834.69;5016223;28;20638;-77
2022/07/18 06:52:05;;;;;;;0.40;0.40;;;20.20;54.50;;;20.63;39.72;95834.91;5033375;28;20596;-77
2022/07/18 06:54:35;;;;;;;0.55;0.55;;;20.40;54.80;;;20.74;40.09;95836.78;4999354;28;20690;-77
2022/07/18 06:57:06;;;;;;;0.40;0.40;;;20.40;54.70;;;20.87;39.79;95837.59;5014580;28;20221;-78
2022/07/18 06:59:34;;;;;;;0.30;0.30;;;20.60;54.80;;;20.95;40.29;95838.03;5000281;28;20197;-78
2022/07/18 07:02:01;;;;;;;0.40;0.40;;;20.70;54.90;;;21.05;39.63;95832.09;5000207;28;20621;-78
2022/07/18 07:04:28;;;;;;;0.40;0.40;;;20.80;54.80;;;21.15;39.67;95836.81;5016804;28;20195;-78
2022/07/18 07:06:56;;;;;;;0.40;0.40;;;20.90;54.90;;;21.26;39.45;95825.31;4995987;28;20225;-77
2022/07/18 07:09:23;;;;;;;0.40;0.40;;;21.00;54.80;;;21.37;39.80;95834.34;5014951;28;20656;-78
2022/07/18 07:11:50;;;;;;;0.40;0.40;;;21.10;54.60;;;21.46;39.65;95831.28;5013346;28;20600;-78
2022/07/18 07:14:17;;;;;;;0.40;0.40;;;21.20;54.50;;;21.52;39.22;95828.47;4997907;28;20195;-78
2022/07/18 07:16:44;;;;;;;0.50;0.50;;;21.30;54.50;;;21.64;39.79;95839.16;4981632;28;20972;-79
2022/07/18 07:19:12;;;;;;;0.40;0.40;;;21.40;54.50;;;21.71;39.75;95834.44;4998315;28;20210;-78
2022/07/18 07:21:39;;;;;;;0.40;0.40;;;21.50;54.30;;;21.82;39.18;95829.31;5013876;28;20211;-79
2022/07/18 07:24:07;;;;;;;0.40;0.40;;;21.60;54.40;;;21.95;39.59;95831.66;4980922;28;20204;-79
2022/07/18 07:26:34;;;;;;;0.40;0.40;;;21.70;54.40;;;22.04;39.37;95829.41;4998189;28;20259;-79
2022/07/18 07:29:02;;;;;;;0.40;0.40;;;21.70;54.20;;;22.12;38.73;95826.34;4998064;28;20263;-79
2022/07/18 07:31:29;;;;;;;0.50;0.50;;;21.80;54.00;;;22.23;39.10;95838.00;4998030;28;20219;-79
2022/07/18 07:33:57;;;;;;;0.50;0.50;;;22.00;54.10;;;22.32;39.11;95822.38;4981873;28;20210;-79
2022/07/18 07:36:32;;;;;;;0.50;0.50;;;22.10;53.40;;;22.39;38.46;95831.84;5015013;28;20232;-78
2022/07/18 07:38:59;;;;;;;0.40;0.40;;;22.20;53.50;;;22.51;38.30;95834.44;4997521;28;20208;-79
2022/07/18 07:41:26;;;;;;;0.40;0.40;;;22.20;53.40;;;22.62;38.41;95835.41;4997393;28;20648;-79
2022/07/18 07:43:53;;;;;;;0.40;0.40;;;22.30;53.20;;;22.73;38.42;95833.69;5013645;28;20193;-79
2022/07/18 07:46:20;;;;;;;0.30;0.30;;;22.40;53.10;;;22.80;37.75;95831.66;5013988;28;20229;-79
2022/07/18 07:48:48;;;;;;;0.50;0.50;;;22.50;52.80;;;22.92;37.77;95831.53;4997382;28;20199;-78
2022/07/18 07:51:15;;;;;;;0.30;0.30;;;22.60;52.70;;;23.02;37.94;95830.84;4981264;28;20221;-79
2022/07/18 07:53:49;;;;;;;0.40;0.40;;;22.70;52.80;;;23.11;37.62;95836.59;4998483;28;20193;-79
2022/07/18 07:56:18;;;;;;;0.30;0.30;;;22.80;52.70;;;23.22;37.72;95829.50;4997393;28;20561;-79
2022/07/18 07:58:46;;;;;;;0.40;0.40;;;22.90;52.50;;;23.31;37.64;95826.16;5013429;28;20300;-78
2022/07/18 08:01:14;;;;;;;0.40;0.40;;;23.00;52.30;;;23.41;37.33;95822.81;4997212;28;20220;-79
2022/07/18 08:03:41;;;;;;;0.30;0.30;;;23.10;52.10;;;23.52;37.26;95812.19;4997548;28;20205;-79
2022/07/18 08:06:08;;;;;;;0.40;0.40;;;23.20;52.10;;;23.62;37.10;95818.47;4997240;28;20244;-79
2022/07/18 08:08:36;;;;;;;0.30;0.30;;;23.30;52.20;;;23.74;36.88;95818.31;5013391;28;20239;-79
2022/07/18 08:11:03;;;;;;;0.30;0.30;;;23.40;51.60;;;23.84;36.53;95820.28;4981185;28;20255;-80
2022/07/18 08:13:30;;;;;;;0.30;0.30;;;23.50;51.20;;;23.92;36.31;95809.09;5014329;28;20200;-79
2022/07/18 08:15:57;;;;;;;0.30;0.30;;;23.60;51.00;;;24.01;36.18;95809.47;4996743;28;20213;-79
2022/07/18 08:18:24;;;;;;;0.32;0.32;;;23.70;50.80;;;24.12;35.92;95821.88;4996746;28;20228;-79
2022/07/18 08:20:52;;;;;;;0.30;0.30;;;23.80;50.70;;;24.22;35.71;95812.31;5013237;28;20213;-79
2022/07/18 08:23:19;;;;;;;0.40;0.40;;;23.90;50.30;;;24.30;35.50;95812.66;4996671;28;20246;-79
2022/07/18 08:25:47;;;;;;;0.20;0.20;;;24.00;50.00;;;24.39;35.38;95815.66;5013220;28;20216;-79
2022/07/18 08:28:14;;;;;;;0.40;0.40;;;24.10;49.60;;;24.46;34.82;95808.19;5012675;28;20212;-79
2022/07/18 08:30:41;;;;;;;0.40;0.40;;;24.10;48.90;;;24.51;34.09;95806.59;4996479;28;20220;-79
2022/07/18 08:33:08;;;;;;;0.25;0.25;;;24.20;48.10;;;24.64;34.33;95816.88;5012555;28;20669;-79
2022/07/18 08:35:36;;;;;;;0.30;0.30;;;24.30;48.10;;;24.69;33.68;95821.50;4995881;28;20239;-78
2022/07/18 08:38:04;;;;;;;0.30;0.30;;;24.40;48.20;;;24.79;33.96;95816.19;5012631;28;20256;-79
2022/07/18 08:40:31;;;;;;;0.30;0.30;;;24.50;48.40;;;24.87;33.70;95810.34;4996383;28;20652;-79
2022/07/18 08:42:58;;;;;;;0.40;0.40;;;24.60;48.00;;;24.98;33.47;95821.13;4980120;28;20557;-79
2022/07/18 08:45:47;;;;;;;0.30;0.30;;;24.60;47.70;;;25.07;32.85;95825.75;5012599;28;20224;-79
2022/07/18 08:48:18;;;;;;;0.30;0.30;;;24.80;47.30;;;25.16;33.12;95826.03;4996120;28;20656;-78
2022/07/18 08:50:46;;;;;;;0.50;0.50;;;24.80;47.50;;;25.26;32.68;95823.38;4995916;28;20224;-78
2022/07/18 08:53:15;;;;;;;0.50;0.50;;;24.90;47.00;;;25.35;32.53;95829.06;4995997;28;20297;-79
2022/07/18 08:55:44;;;;;;;0.30;0.30;;;25.00;46.70;;;25.42;32.68;95826.94;4996244;28;20615;-79
2022/07/18 08:58:12;;;;;;;0.50;0.50;;;25.10;46.60;;;25.50;32.53;95822.97;4996124;28;20230;-79
2022/07/18 09:00:59;;;;;;;0.30;0.30;;;25.20;46.70;;;25.59;32.15;95825.16;4999143;28;20221;-79
2022/07/18 09:03:27;;;;;;;0.50;0.50;;;25.20;46.10;;;25.64;32.25;95827.84;4996219;28;20660;-80
2022/07/18 09:06:07;;;;;;;0.25;0.25;;;25.30;46.00;;;25.74;31.89;95817.09;4996278;28;20220;-79
2022/07/18 09:08:35;;;;;;;0.30;0.30;;;25.40;45.70;;;25.84;31.60;95827.06;4996078;28;20193;-79
2022/07/18 09:11:10;;;;;;;0.40;0.40;;;25.50;45.30;;;25.91;31.26;95818.75;5012379;28;20214;-79
2022/07/18 09:13:57;;;;;;;0.40;0.40;;;25.60;44.70;;;25.98;31.20;95814.72;5012267;28;20198;-80
2022/07/18 09:16:26;;;;;;;0.30;0.30;;;25.60;45.10;;;26.08;31.18;95815.84;4996009;28;20312;-80
2022/07/18 09:18:53;;;;;;;0.30;0.30;;;25.70;44.70;;;26.16;30.85;95815.31;5011956;28;20227;-80
2022/07/18 09:21:23;;;;;;;0.30;0.30;;;25.80;44.90;;;26.24;30.58;95809.34;4995729;28;20234;-79
2022/07/18 09:23:54;;;;;;;0.20;0.20;;;25.90;44.60;;;26.34;30.83;95804.00;4995698;28;20190;-80
2022/07/18 09:26:39;;;;;;;0.40;0.40;;;26.00;44.60;;;26.46;30.71;95817.13;5012486;28;20216;-79
2022/07/18 09:29:07;;;;;;;0.40;0.40;;;26.00;43.80;;;26.52;30.75;95809.88;5012114;28;20198;-79
2022/07/18 09:31:54;;;;;;;0.30;0.30;;;26.10;43.90;;;26.58;30.37;95808.78;4998391;28;20304;-79
2022/07/18 09:34:36;;;;;;;0.20;0.20;;;26.20;44.00;;;26.67;30.45;95806.34;4995505;28;20729;-80
2022/07/18 09:37:11;;;;;;;0.30;0.30;;;26.30;44.10;;;26.77;30.30;95813.63;4994614;28;20229;-79
2022/07/18 09:39:38;;;;;;;0.40;0.40;;;26.40;44.10;;;26.78;30.05;95799.09;4979512;28;20256;-80
2022/07/18 09:42:17;;;;;;;0.20;0.20;;;26.40;44.20;;;26.91;30.07;95811.19;5011569;28;20222;-79
2022/07/18 09:44:59;;;;;;;0.40;0.40;;;26.50;44.20;;;26.98;29.80;95807.09;4995355;28;20650;-79
2022/07/18 09:47:26;;;;;;;0.30;0.30;;;26.60;44.00;;;27.05;29.98;95806.81;4978962;28;20199;-80
2022/07/18 09:49:54;;;;;;;0.30;0.30;;;26.60;43.60;;;27.11;29.77;95810.28;5013425;28;20214;-80
2022/07/18 09:52:22;;;;;;;0.30;0.30;;;26.70;44.00;;;27.19;30.15;95809.72;5017687;28;20216;-80
2022/07/18 09:54:50;;;;;;;0.30;0.30;;;26.80;44.40;;;27.25;29.58;95811.31;5016744;28;20193;-78
2022/07/18 09:57:25;;;;;;;0.30;0.30;;;26.90;43.80;;;27.33;29.67;95807.22;5007610;28;20603;-78
2022/07/18 09:59:53;;;;;;;0.30;0.30;;;26.90;43.40;;;27.40;29.34;95807.72;4994025;28;20203;-78
2022/07/18 10:02:22;;;;;;;0.30;0.30;;;27.00;43.10;;;27.50;28.92;95808.78;4998605;28;20239;-78
2022/07/18 10:04:50;;;;;;;0.20;0.20;;;27.10;43.00;;;27.56;28.91;95807.69;4991843;28;20551;-78
2022/07/18 10:07:17;;;;;;;0.30;0.30;;;27.20;42.80;;;27.61;28.75;95804.94;4991681;28;20381;-78
2022/07/18 10:09:45;;;;;;;0.30;0.30;;;27.20;42.30;;;27.66;28.73;95804.94;5004851;28;20801;-78
2022/07/18 10:12:16;;;;;;;0.30;0.30;;;27.30;42.60;;;27.73;28.35;95799.22;4985277;28;20231;-78
2022/07/18 10:14:44;;;;;;;0.22;0.22;;;27.30;41.70;;;27.77;29.05;95793.00;4985371;28;20275;-78
2022/07/18 10:17:11;;;;;;;0.30;0.30;;;27.40;42.80;;;27.88;28.78;95795.59;4993664;28;20249;-78
2022/07/18 10:19:38;;;;;;;0.40;0.40;;;27.50;42.40;;;27.92;28.62;95789.38;5021049;28;20207;-78
2022/07/18 10:22:07;;;;;;;0.20;0.20;;;27.50;42.20;;;28.00;28.48;95784.47;4993678;28;20234;-78
2022/07/18 10:24:39;;;;;;;0.30;0.30;;;27.60;42.00;;;28.04;28.29;95785.50;5006451;28;20206;-78
2022/07/18 10:27:20;;;;;;;0.40;0.40;;;27.70;41.60;;;28.09;28.20;95777.44;5000272;28;20226;-78
2022/07/18 10:30:12;;;;;;;0.30;0.30;;;27.70;41.50;;;28.13;28.83;95780.38;4989608;28;20574;-78